sensor_id;sensor_type;location;lat;lon;timestamp;temperature;humidity
34873;DHT22;21084;51.098;14.506;2022-09-25T00:01:02;7.60;99.90
34873;DHT22;21084;51.098;14.506;2022-09-25T00:03:31;7.50;99.90
34873;DHT22;21084;51.098;14.506;2022-09-25T00:06:01;7.50;99.90
34873;DHT22;21084;51.098;14.506;2022-09-25T00:08:29;7.50;99.90
34873;DHT22;21084;51.098;14.506;2022-09-25T00:10:58;7.50;99.90
34873;DHT22;21084;51.098;14.506;2022-09-25T00:13:26;7.40;99.90
34873;DHT22;21084;51.098;14.506;2022-09-25T00:15:55;7.40;99.90
34873;DHT22;21084;51.098;14.506;2022-09-25T00:18:25;7.40;99.90
34873;DHT22;21084;51.098;14.506;2022-09-25T00:21:13;7.40;99.90
34873;DHT22;21084;51.098;14.506;2022-09-25T00:23:42;7.40;99.90
34873;DHT22;21084;51.098;14.506;2022-09-25T00:26:36;7.30;99.90
34873;DHT22;21084;51.098;14.506;2022-09-25T00:29:23;7.30;99.90
34873;DHT22;21084;51.098;14.506;2022-09-25T00:32:11;7.30;99.90
34873;DHT22;21084;51.098;14.506;2022-09-25T00:34:58;7.30;99.90
34873;DHT22;21084;51.098;14.506;2022-09-25T00:37:44;7.40;99.90
34873;DHT22;21084;51.098;14.506;2022-09-25T00:40:30;7.40;99.90
34873;DHT22;21084;51.098;14.506;2022-09-25T00:42:58;7.40;99.90
34873;DHT22;21084;51.098;14.506;2022-09-25T00:45:26;7.40;99.90
34873;DHT22;21084;51.098;14.506;2022-09-25T00:47:58;7.50;99.90
34873;DHT22;21084;51.098;14.506;2022-09-25T00:50:31;7.40;99.90
34873;DHT22;21084;51.098;14.506;2022-09-25T00:53:04;7.50;99.90
34873;DHT22;21084;51.098;14.506;2022-09-25T00:55:34;7.50;99.90
34873;DHT22;21084;51.098;14.506;2022-09-25T00:58:05;7.40;99.90
34873;DHT22;21084;51.098;14.506;2022-09-25T01:00:34;7.40;99.90
34873;DHT22;21084;51.098;14.506;2022-09-25T01:03:03;7.50;99.90
34873;DHT22;21084;51.098;14.506;2022-09-25T01:05:35;7.50;99.90
34873;DHT22;21084;51.098;14.506;2022-09-25T01:08:06;7.50;99.90
34873;DHT22;21084;51.098;14.506;2022-09-25T01:10:36;7.60;99.90
34873;DHT22;21084;51.098;14.506;2022-09-25T01:13:05;7.60;99.90
34873;DHT22;21084;51.098;14.506;2022-09-25T01:15:38;7.70;99.90
34873;DHT22;21084;51.098;14.506;2022-09-25T01:18:16;7.70;99.90
34873;DHT22;21084;51.098;14.506;2022-09-25T01:21:09;7.70;99.90
34873;DHT22;21084;51.098;14.506;2022-09-25T01:23:59;7.80;99.90
34873;DHT22;21084;51.098;14.506;2022-09-25T01:27:01;7.80;99.90
34873;DHT22;21084;51.098;14.506;2022-09-25T01:29:36;7.90;99.90
34873;DHT22;21084;51.098;14.506;2022-09-25T01:32:11;8.00;99.90
34873;DHT22;21084;51.098;14.506;2022-09-25T01:34:49;8.00;99.90
34873;DHT22;21084;51.098;14.506;2022-09-25T01:37:23;8.10;99.90
34873;DHT22;21084;51.098;14.506;2022-09-25T01:40:01;8.20;99.90
34873;DHT22;21084;51.098;14.506;2022-09-25T01:42:35;8.20;99.90
34873;DHT22;21084;51.098;14.506;2022-09-25T01:45:08;8.30;99.90
34873;DHT22;21084;51.098;14.506;2022-09-25T01:47:41;8.40;99.90
34873;DHT22;21084;51.098;14.506;2022-09-25T01:50:13;8.40;99.90
34873;DHT22;21084;51.098;14.506;2022-09-25T01:52:45;8.50;99.90
34873;DHT22;21084;51.098;14.506;2022-09-25T01:55:17;8.50;99.90
34873;DHT22;21084;51.098;14.506;2022-09-25T01:57:51;8.50;99.90
34873;DHT22;21084;51.098;14.506;2022-09-25T02:00:22;8.60;99.90
34873;DHT22;21084;51.098;14.506;2022-09-25T02:02:56;8.60;99.90
34873;DHT22;21084;51.098;14.506;2022-09-25T02:05:30;8.60;99.90
34873;DHT22;21084;51.098;14.506;2022-09-25T02:08:00;8.70;99.90
34873;DHT22;21084;51.098;14.506;2022-09-25T02:10:34;8.70;99.90
34873;DHT22;21084;51.098;14.506;2022-09-25T02:13:05;8.70;99.90
34873;DHT22;21084;51.098;14.506;2022-09-25T02:15:39;8.80;99.90
34873;DHT22;21084;51.098;14.506;2022-09-25T02:18:11;8.70;99.90
34873;DHT22;21084;51.098;14.506;2022-09-25T02:21:01;8.70;99.90
34873;DHT22;21084;51.098;14.506;2022-09-25T02:23:38;8.80;99.90
34873;DHT22;21084;51.098;14.506;2022-09-25T02:26:14;8.80;99.90
34873;DHT22;21084;51.098;14.506;2022-09-25T02:28:43;8.80;99.90
34873;DHT22;21084;51.098;14.506;2022-09-25T02:31:12;8.80;99.90
34873;DHT22;21084;51.098;14.506;2022-09-25T02:33:43;8.80;99.90
34873;DHT22;21084;51.098;14.506;2022-09-25T02:36:16;8.80;99.90
34873;DHT22;21084;51.098;14.506;2022-09-25T02:38:45;8.80;99.90
34873;DHT22;21084;51.098;14.506;2022-09-25T02:41:19;8.80;99.90
34873;DHT22;21084;51.098;14.506;2022-09-25T02:43:57;8.80;99.90
34873;DHT22;21084;51.098;14.506;2022-09-25T02:46:35;8.90;99.90
34873;DHT22;21084;51.098;14.506;2022-09-25T02:49:13;8.80;99.90
34873;DHT22;21084;51.098;14.506;2022-09-25T02:51:48;8.90;99.90
34873;DHT22;21084;51.098;14.506;2022-09-25T02:54:24;8.90;99.90
34873;DHT22;21084;51.098;14.506;2022-09-25T02:57:01;9.00;99.90
34873;DHT22;21084;51.098;14.506;2022-09-25T02:59:34;9.00;99.90
34873;DHT22;21084;51.098;14.506;2022-09-25T03:02:05;8.90;99.90
34873;DHT22;21084;51.098;14.506;2022-09-25T03:04:35;9.00;99.90
34873;DHT22;21084;51.098;14.506;2022-09-25T03:07:04;9.00;99.90
34873;DHT22;21084;51.098;14.506;2022-09-25T03:09:34;9.00;99.90
34873;DHT22;21084;51.098;14.506;2022-09-25T03:12:04;9.00;99.90
34873;DHT22;21084;51.098;14.506;2022-09-25T03:14:32;9.00;99.90
34873;DHT22;21084;51.098;14.506;2022-09-25T03:17:02;9.10;99.90
34873;DHT22;21084;51.098;14.506;2022-09-25T03:19:33;9.10;99.90
34873;DHT22;21084;51.098;14.506;2022-09-25T03:22:01;9.10;99.90
34873;DHT22;21084;51.098;14.506;2022-09-25T03:24:29;9.10;99.90
34873;DHT22;21084;51.098;14.506;2022-09-25T03:26:58;9.10;99.90
34873;DHT22;21084;51.098;14.506;2022-09-25T03:29:25;9.10;99.90
34873;DHT22;21084;51.098;14.506;2022-09-25T03:31:56;9.20;99.90
34873;DHT22;21084;51.098;14.506;2022-09-25T03:34:24;9.20;99.90
34873;DHT22;21084;51.098;14.506;2022-09-25T03:36:54;9.10;99.90
34873;DHT22;21084;51.098;14.506;2022-09-25T03:39:22;9.20;99.90
34873;DHT22;21084;51.098;14.506;2022-09-25T03:41:50;9.20;99.90
34873;DHT22;21084;51.098;14.506;2022-09-25T03:44:18;9.20;99.90
34873;DHT22;21084;51.098;14.506;2022-09-25T03:46:46;9.20;99.90
34873;DHT22;21084;51.098;14.506;2022-09-25T03:49:14;9.30;99.90
34873;DHT22;21084;51.098;14.506;2022-09-25T03:51:42;9.30;99.90
34873;DHT22;21084;51.098;14.506;2022-09-25T03:54:11;9.30;99.90
34873;DHT22;21084;51.098;14.506;2022-09-25T03:56:39;9.30;99.90
34873;DHT22;21084;51.098;14.506;2022-09-25T03:59:08;9.40;99.90
34873;DHT22;21084;51.098;14.506;2022-09-25T04:01:36;9.40;99.90
34873;DHT22;21084;51.098;14.506;2022-09-25T04:04:04;9.40;99.90
34873;DHT22;21084;51.098;14.506;2022-09-25T04:06:32;9.40;99.90
34873;DHT22;21084;51.098;14.506;2022-09-25T04:09:00;9.50;99.90
34873;DHT22;21084;51.098;14.506;2022-09-25T04:11:29;9.50;99.90
34873;DHT22;21084;51.098;14.506;2022-09-25T04:13:58;9.50;99.90
34873;DHT22;21084;51.098;14.506;2022-09-25T04:16:26;9.50;99.90
34873;DHT22;21084;51.098;14.506;2022-09-25T04:18:57;9.50;99.90
34873;DHT22;21084;51.098;14.506;2022-09-25T04:21:25;9.50;99.90
34873;DHT22;21084;51.098;14.506;2022-09-25T04:23:52;9.50;99.90
34873;DHT22;21084;51.098;14.506;2022-09-25T04:26:39;9.60;99.90
34873;DHT22;21084;51.098;14.506;2022-09-25T04:29:07;9.60;99.90
34873;DHT22;21084;51.098;14.506;2022-09-25T04:31:35;9.60;99.90
34873;DHT22;21084;51.098;14.506;2022-09-25T04:34:03;9.70;99.90
34873;DHT22;21084;51.098;14.506;2022-09-25T04:36:31;9.70;99.90
34873;DHT22;21084;51.098;14.506;2022-09-25T04:38:59;9.60;99.90
34873;DHT22;21084;51.098;14.506;2022-09-25T04:41:27;9.70;99.90
34873;DHT22;21084;51.098;14.506;2022-09-25T04:43:56;9.70;99.90
34873;DHT22;21084;51.098;14.506;2022-09-25T04:46:24;9.70;99.90
34873;DHT22;21084;51.098;14.506;2022-09-25T04:48:52;9.70;99.90
34873;DHT22;21084;51.098;14.506;2022-09-25T04:51:20;9.70;99.90
34873;DHT22;21084;51.098;14.506;2022-09-25T04:53:48;9.70;99.90
34873;DHT22;21084;51.098;14.506;2022-09-25T04:56:16;9.70;99.90
34873;DHT22;21084;51.098;14.506;2022-09-25T04:58:45;9.70;99.90
34873;DHT22;21084;51.098;14.506;2022-09-25T05:01:16;9.70;99.90
34873;DHT22;21084;51.098;14.506;2022-09-25T05:03:47;9.70;99.90
34873;DHT22;21084;51.098;14.506;2022-09-25T05:06:15;9.70;99.90
34873;DHT22;21084;51.098;14.506;2022-09-25T05:08:46;9.80;99.90
34873;DHT22;21084;51.098;14.506;2022-09-25T05:11:16;9.80;99.90
34873;DHT22;21084;51.098;14.506;2022-09-25T05:13:44;9.80;99.90
34873;DHT22;21084;51.098;14.506;2022-09-25T05:16:14;9.80;99.90
34873;DHT22;21084;51.098;14.506;2022-09-25T05:18:42;9.90;99.90
34873;DHT22;21084;51.098;14.506;2022-09-25T05:21:10;9.90;99.90
34873;DHT22;21084;51.098;14.506;2022-09-25T05:23:38;9.90;99.90
34873;DHT22;21084;51.098;14.506;2022-09-25T05:26:06;9.90;99.90
34873;DHT22;21084;51.098;14.506;2022-09-25T05:28:35;9.90;99.90
34873;DHT22;21084;51.098;14.506;2022-09-25T05:31:03;9.90;99.90
34873;DHT22;21084;51.098;14.506;2022-09-25T05:33:34;9.90;99.90
34873;DHT22;21084;51.098;14.506;2022-09-25T05:36:06;10.00;99.90
34873;DHT22;21084;51.098;14.506;2022-09-25T05:38:35;10.00;99.90
34873;DHT22;21084;51.098;14.506;2022-09-25T05:41:07;10.00;99.90
34873;DHT22;21084;51.098;14.506;2022-09-25T05:43:39;10.00;99.90
34873;DHT22;21084;51.098;14.506;2022-09-25T05:46:07;10.10;99.90
34873;DHT22;21084;51.098;14.506;2022-09-25T05:48:37;10.10;99.90
34873;DHT22;21084;51.098;14.506;2022-09-25T05:51:05;10.10;99.90
34873;DHT22;21084;51.098;14.506;2022-09-25T05:53:33;10.20;99.90
34873;DHT22;21084;51.098;14.506;2022-09-25T05:56:02;10.20;99.90
34873;DHT22;21084;51.098;14.506;2022-09-25T05:58:33;10.30;99.90
34873;DHT22;21084;51.098;14.506;2022-09-25T06:01:03;10.40;99.90
34873;DHT22;21084;51.098;14.506;2022-09-25T06:03:31;10.40;99.90
34873;DHT22;21084;51.098;14.506;2022-09-25T06:06:01;10.40;99.90
34873;DHT22;21084;51.098;14.506;2022-09-25T06:08:29;10.50;99.90
34873;DHT22;21084;51.098;14.506;2022-09-25T06:10:58;10.60;99.90
34873;DHT22;21084;51.098;14.506;2022-09-25T06:13:26;10.60;99.90
34873;DHT22;21084;51.098;14.506;2022-09-25T06:15:55;10.70;99.90
34873;DHT22;21084;51.098;14.506;2022-09-25T06:18:24;10.80;99.90
34873;DHT22;21084;51.098;14.506;2022-09-25T06:20:58;10.90;99.90
34873;DHT22;21084;51.098;14.506;2022-09-25T06:23:28;10.90;99.90
34873;DHT22;21084;51.098;14.506;2022-09-25T06:26:00;10.90;99.90
34873;DHT22;21084;51.098;14.506;2022-09-25T06:28:29;11.00;99.90
34873;DHT22;21084;51.098;14.506;2022-09-25T06:30:59;11.00;99.90
34873;DHT22;21084;51.098;14.506;2022-09-25T06:33:27;11.10;99.90
34873;DHT22;21084;51.098;14.506;2022-09-25T06:35:55;11.00;99.90
34873;DHT22;21084;51.098;14.506;2022-09-25T06:38:23;11.10;99.90
34873;DHT22;21084;51.098;14.506;2022-09-25T06:40:52;11.20;99.90
34873;DHT22;21084;51.098;14.506;2022-09-25T06:43:25;11.20;99.90
34873;DHT22;21084;51.098;14.506;2022-09-25T06:45:53;11.30;99.90
34873;DHT22;21084;51.098;14.506;2022-09-25T06:48:22;11.30;99.90
34873;DHT22;21084;51.098;14.506;2022-09-25T06:50:51;11.30;99.90
34873;DHT22;21084;51.098;14.506;2022-09-25T06:53:20;11.50;99.90
34873;DHT22;21084;51.098;14.506;2022-09-25T06:55:49;11.60;99.90
34873;DHT22;21084;51.098;14.506;2022-09-25T06:58:22;11.70;99.90
34873;DHT22;21084;51.098;14.506;2022-09-25T07:00:52;11.70;99.90
34873;DHT22;21084;51.098;14.506;2022-09-25T07:03:20;11.80;99.90
34873;DHT22;21084;51.098;14.506;2022-09-25T07:06:08;11.90;99.90
34873;DHT22;21084;51.098;14.506;2022-09-25T07:08:38;11.90;99.90
34873;DHT22;21084;51.098;14.506;2022-09-25T07:11:06;12.10;99.90
34873;DHT22;21084;51.098;14.506;2022-09-25T07:13:35;12.20;99.90
34873;DHT22;21084;51.098;14.506;2022-09-25T07:16:06;12.30;99.90
34873;DHT22;21084;51.098;14.506;2022-09-25T07:18:34;12.40;99.90
34873;DHT22;21084;51.098;14.506;2022-09-25T07:21:04;12.50;99.90
34873;DHT22;21084;51.098;14.506;2022-09-25T07:23:32;12.50;99.90
34873;DHT22;21084;51.098;14.506;2022-09-25T07:26:05;12.60;99.90
34873;DHT22;21084;51.098;14.506;2022-09-25T07:28:36;12.70;99.90
34873;DHT22;21084;51.098;14.506;2022-09-25T07:31:13;12.80;99.90
34873;DHT22;21084;51.098;14.506;2022-09-25T07:33:42;12.90;99.90
34873;DHT22;21084;51.098;14.506;2022-09-25T07:36:10;13.00;99.90
34873;DHT22;21084;51.098;14.506;2022-09-25T07:38:39;13.10;99.90
34873;DHT22;21084;51.098;14.506;2022-09-25T07:41:09;13.20;99.90
34873;DHT22;21084;51.098;14.506;2022-09-25T07:43:40;13.20;99.90
34873;DHT22;21084;51.098;14.506;2022-09-25T07:46:09;13.30;99.90
34873;DHT22;21084;51.098;14.506;2022-09-25T07:48:37;13.40;99.90
34873;DHT22;21084;51.098;14.506;2022-09-25T07:51:07;13.50;99.90
34873;DHT22;21084;51.098;14.506;2022-09-25T07:53:35;13.50;99.90
34873;DHT22;21084;51.098;14.506;2022-09-25T07:56:03;13.60;99.90
34873;DHT22;21084;51.098;14.506;2022-09-25T07:58:34;13.70;99.90
34873;DHT22;21084;51.098;14.506;2022-09-25T08:01:05;13.80;99.90
34873;DHT22;21084;51.098;14.506;2022-09-25T08:03:33;13.90;99.90
34873;DHT22;21084;51.098;14.506;2022-09-25T08:06:03;14.00;99.90
34873;DHT22;21084;51.098;14.506;2022-09-25T08:08:32;14.20;99.90
34873;DHT22;21084;51.098;14.506;2022-09-25T08:11:01;14.10;99.90
34873;DHT22;21084;51.098;14.506;2022-09-25T08:13:31;14.40;99.90
34873;DHT22;21084;51.098;14.506;2022-09-25T08:16:01;14.60;99.90
34873;DHT22;21084;51.098;14.506;2022-09-25T08:18:31;14.80;99.90
34873;DHT22;21084;51.098;14.506;2022-09-25T08:21:00;15.00;99.90
34873;DHT22;21084;51.098;14.506;2022-09-25T08:23:29;15.00;99.90
34873;DHT22;21084;51.098;14.506;2022-09-25T08:25:57;15.20;99.90
34873;DHT22;21084;51.098;14.506;2022-09-25T08:28:25;15.40;99.90
34873;DHT22;21084;51.098;14.506;2022-09-25T08:30:53;15.60;99.90
34873;DHT22;21084;51.098;14.506;2022-09-25T08:33:21;15.90;99.90
34873;DHT22;21084;51.098;14.506;2022-09-25T08:35:56;16.20;99.90
34873;DHT22;21084;51.098;14.506;2022-09-25T08:38:24;16.30;99.90
34873;DHT22;21084;51.098;14.506;2022-09-25T08:40:57;16.50;99.90
34873;DHT22;21084;51.098;14.506;2022-09-25T08:43:27;16.50;99.90
34873;DHT22;21084;51.098;14.506;2022-09-25T08:45:57;16.30;99.90
34873;DHT22;21084;51.098;14.506;2022-09-25T08:48:50;15.90;99.90
34873;DHT22;21084;51.098;14.506;2022-09-25T08:51:34;15.80;99.90
34873;DHT22;21084;51.098;14.506;2022-09-25T08:54:03;16.00;99.90
34873;DHT22;21084;51.098;14.506;2022-09-25T08:56:33;16.20;99.90
34873;DHT22;21084;51.098;14.506;2022-09-25T08:59:03;16.50;99.90
34873;DHT22;21084;51.098;14.506;2022-09-25T09:01:43;16.60;99.90
34873;DHT22;21084;51.098;14.506;2022-09-25T09:04:17;16.90;99.90
34873;DHT22;21084;51.098;14.506;2022-09-25T09:06:56;17.10;99.90
34873;DHT22;21084;51.098;14.506;2022-09-25T09:09:48;17.10;99.90
34873;DHT22;21084;51.098;14.506;2022-09-25T09:12:21;17.70;99.90
34873;DHT22;21084;51.098;14.506;2022-09-25T09:14:57;18.20;99.90
34873;DHT22;21084;51.098;14.506;2022-09-25T09:17:38;18.50;99.90
34873;DHT22;21084;51.098;14.506;2022-09-25T09:20:15;18.80;99.90
34873;DHT22;21084;51.098;14.506;2022-09-25T09:22:48;18.80;99.90
34873;DHT22;21084;51.098;14.506;2022-09-25T09:25:25;18.80;99.90
34873;DHT22;21084;51.098;14.506;2022-09-25T09:28:20;18.80;99.90
34873;DHT22;21084;51.098;14.506;2022-09-25T09:30:57;18.90;99.90
34873;DHT22;21084;51.098;14.506;2022-09-25T09:33:37;18.40;99.90
34873;DHT22;21084;51.098;14.506;2022-09-25T09:36:12;18.10;99.90
34873;DHT22;21084;51.098;14.506;2022-09-25T09:38:49;18.50;99.90
34873;DHT22;21084;51.098;14.506;2022-09-25T09:41:30;18.40;99.90
34873;DHT22;21084;51.098;14.506;2022-09-25T09:44:11;18.70;99.90
34873;DHT22;21084;51.098;14.506;2022-09-25T09:46:48;18.90;99.90
34873;DHT22;21084;51.098;14.506;2022-09-25T09:49:21;19.30;99.90
34873;DHT22;21084;51.098;14.506;2022-09-25T09:51:54;20.30;99.90
34873;DHT22;21084;51.098;14.506;2022-09-25T09:54:32;20.70;99.90
34873;DHT22;21084;51.098;14.506;2022-09-25T09:57:08;21.10;99.90
34873;DHT22;21084;51.098;14.506;2022-09-25T09:59:42;21.00;99.90
34873;DHT22;21084;51.098;14.506;2022-09-25T10:02:23;21.70;99.90
34873;DHT22;21084;51.098;14.506;2022-09-25T10:04:57;21.00;99.90
34873;DHT22;21084;51.098;14.506;2022-09-25T10:07:30;20.70;99.90
34873;DHT22;21084;51.098;14.506;2022-09-25T10:10:08;20.60;99.90
34873;DHT22;21084;51.098;14.506;2022-09-25T10:12:38;20.30;99.90
34873;DHT22;21084;51.098;14.506;2022-09-25T10:15:17;21.10;99.90
34873;DHT22;21084;51.098;14.506;2022-09-25T10:17:46;21.80;99.90
34873;DHT22;21084;51.098;14.506;2022-09-25T10:20:18;21.50;99.90
34873;DHT22;21084;51.098;14.506;2022-09-25T10:22:51;21.60;99.90
34873;DHT22;21084;51.098;14.506;2022-09-25T10:25:35;22.30;99.90
34873;DHT22;21084;51.098;14.506;2022-09-25T10:28:21;22.30;99.90
34873;DHT22;21084;51.098;14.506;2022-09-25T10:30:49;23.20;99.90
34873;DHT22;21084;51.098;14.506;2022-09-25T10:33:20;23.80;99.90
34873;DHT22;21084;51.098;14.506;2022-09-25T10:35:49;24.40;99.90
34873;DHT22;21084;51.098;14.506;2022-09-25T10:38:36;23.90;99.90
34873;DHT22;21084;51.098;14.506;2022-09-25T10:41:09;23.40;99.90
34873;DHT22;21084;51.098;14.506;2022-09-25T10:43:59;24.40;99.90
34873;DHT22;21084;51.098;14.506;2022-09-25T10:46:29;24.60;99.90
34873;DHT22;21084;51.098;14.506;2022-09-25T10:49:17;24.60;99.90
34873;DHT22;21084;51.098;14.506;2022-09-25T10:52:04;24.10;99.90
34873;DHT22;21084;51.098;14.506;2022-09-25T10:54:33;23.60;99.90
34873;DHT22;21084;51.098;14.506;2022-09-25T10:57:16;21.30;99.90
34873;DHT22;21084;51.098;14.506;2022-09-25T10:59:48;21.70;99.90
34873;DHT22;21084;51.098;14.506;2022-09-25T11:02:24;21.40;99.90
34873;DHT22;21084;51.098;14.506;2022-09-25T11:04:56;21.30;99.90
34873;DHT22;21084;51.098;14.506;2022-09-25T11:07:24;21.20;99.90
34873;DHT22;21084;51.098;14.506;2022-09-25T11:09:53;21.00;99.90
34873;DHT22;21084;51.098;14.506;2022-09-25T11:12:27;20.70;99.90
34873;DHT22;21084;51.098;14.506;2022-09-25T11:14:56;19.90;99.90
34873;DHT22;21084;51.098;14.506;2022-09-25T11:17:31;20.30;99.90
34873;DHT22;21084;51.098;14.506;2022-09-25T11:20:11;20.40;99.90
34873;DHT22;21084;51.098;14.506;2022-09-25T11:22:44;19.70;99.90
34873;DHT22;21084;51.098;14.506;2022-09-25T11:25:17;19.40;99.90
34873;DHT22;21084;51.098;14.506;2022-09-25T11:27:53;19.90;99.90
34873;DHT22;21084;51.098;14.506;2022-09-25T11:30:23;20.60;99.90
34873;DHT22;21084;51.098;14.506;2022-09-25T11:32:59;20.90;99.90
34873;DHT22;21084;51.098;14.506;2022-09-25T11:35:42;21.90;99.90
34873;DHT22;21084;51.098;14.506;2022-09-25T11:38:21;22.30;99.90
34873;DHT22;21084;51.098;14.506;2022-09-25T11:41:16;21.90;99.90
34873;DHT22;21084;51.098;14.506;2022-09-25T11:44:06;22.00;99.90
34873;DHT22;21084;51.098;14.506;2022-09-25T11:46:40;21.80;99.90
34873;DHT22;21084;51.098;14.506;2022-09-25T11:49:17;22.60;99.90
34873;DHT22;21084;51.098;14.506;2022-09-25T11:54:52;22.40;99.90
34873;DHT22;21084;51.098;14.506;2022-09-25T11:57:29;21.80;99.90
34873;DHT22;21084;51.098;14.506;2022-09-25T12:00:08;20.90;99.90
34873;DHT22;21084;51.098;14.506;2022-09-25T12:02:48;20.20;99.90
34873;DHT22;21084;51.098;14.506;2022-09-25T12:05:37;20.30;99.90
34873;DHT22;21084;51.098;14.506;2022-09-25T12:08:19;19.70;99.90
34873;DHT22;21084;51.098;14.506;2022-09-25T12:10:57;19.70;99.90
34873;DHT22;21084;51.098;14.506;2022-09-25T12:13:36;19.80;99.90
34873;DHT22;21084;51.098;14.506;2022-09-25T12:16:15;20.00;99.90
34873;DHT22;21084;51.098;14.506;2022-09-25T12:19:01;20.10;99.90
34873;DHT22;21084;51.098;14.506;2022-09-25T12:21:35;20.00;99.90
34873;DHT22;21084;51.098;14.506;2022-09-25T12:24:12;19.50;99.90
34873;DHT22;21084;51.098;14.506;2022-09-25T12:26:49;19.10;99.90
34873;DHT22;21084;51.098;14.506;2022-09-25T12:29:31;19.00;99.90
34873;DHT22;21084;51.098;14.506;2022-09-25T12:32:10;19.10;99.90
34873;DHT22;21084;51.098;14.506;2022-09-25T12:34:55;18.40;99.90
34873;DHT22;21084;51.098;14.506;2022-09-25T12:37:31;18.00;99.90
34873;DHT22;21084;51.098;14.506;2022-09-25T12:40:03;17.90;99.90
34873;DHT22;21084;51.098;14.506;2022-09-25T12:42:40;18.20;99.90
34873;DHT22;21084;51.098;14.506;2022-09-25T12:45:14;18.50;99.90
34873;DHT22;21084;51.098;14.506;2022-09-25T12:48:00;18.50;99.90
34873;DHT22;21084;51.098;14.506;2022-09-25T12:50:33;18.50;99.90
34873;DHT22;21084;51.098;14.506;2022-09-25T12:53:12;18.60;99.90
34873;DHT22;21084;51.098;14.506;2022-09-25T12:55:48;18.80;99.90
34873;DHT22;21084;51.098;14.506;2022-09-25T12:58:21;19.10;99.90
34873;DHT22;21084;51.098;14.506;2022-09-25T13:01:00;19.10;99.90
34873;DHT22;21084;51.098;14.506;2022-09-25T13:03:40;19.30;99.90
34873;DHT22;21084;51.098;14.506;2022-09-25T13:06:14;19.40;99.90
34873;DHT22;21084;51.098;14.506;2022-09-25T13:08:46;19.40;99.90
34873;DHT22;21084;51.098;14.506;2022-09-25T13:11:21;19.70;99.90
34873;DHT22;21084;51.098;14.506;2022-09-25T13:13:53;19.90;99.90
34873;DHT22;21084;51.098;14.506;2022-09-25T13:16:21;19.90;99.90
34873;DHT22;21084;51.098;14.506;2022-09-25T13:19:09;20.10;99.90
34873;DHT22;21084;51.098;14.506;2022-09-25T13:21:39;20.20;99.90
34873;DHT22;21084;51.098;14.506;2022-09-25T13:24:11;20.00;99.90
34873;DHT22;21084;51.098;14.506;2022-09-25T13:26:46;20.00;99.90
34873;DHT22;21084;51.098;14.506;2022-09-25T13:29:21;19.60;99.90
34873;DHT22;21084;51.098;14.506;2022-09-25T13:31:50;19.60;99.90
34873;DHT22;21084;51.098;14.506;2022-09-25T13:34:21;19.60;99.90
34873;DHT22;21084;51.098;14.506;2022-09-25T13:36:52;19.90;99.90
34873;DHT22;21084;51.098;14.506;2022-09-25T13:39:25;20.10;99.90
34873;DHT22;21084;51.098;14.506;2022-09-25T13:42:20;20.30;99.90
34873;DHT22;21084;51.098;14.506;2022-09-25T13:44:56;20.60;99.90
34873;DHT22;21084;51.098;14.506;2022-09-25T13:47:53;20.90;99.90
34873;DHT22;21084;51.098;14.506;2022-09-25T13:50:35;20.90;99.90
34873;DHT22;21084;51.098;14.506;2022-09-25T13:53:23;20.80;99.90
34873;DHT22;21084;51.098;14.506;2022-09-25T13:56:25;20.70;99.90
34873;DHT22;21084;51.098;14.506;2022-09-25T14:04:44;20.10;99.90
34873;DHT22;21084;51.098;14.506;2022-09-25T14:07:22;20.30;99.90
34873;DHT22;21084;51.098;14.506;2022-09-25T14:09:53;21.00;99.90
34873;DHT22;21084;51.098;14.506;2022-09-25T14:12:26;22.00;99.90
34873;DHT22;21084;51.098;14.506;2022-09-25T14:14:58;23.00;99.90
34873;DHT22;21084;51.098;14.506;2022-09-25T14:17:28;23.10;99.90
34873;DHT22;21084;51.098;14.506;2022-09-25T14:19:59;22.80;99.90
34873;DHT22;21084;51.098;14.506;2022-09-25T14:22:37;22.90;99.90
34873;DHT22;21084;51.098;14.506;2022-09-25T14:25:24;23.40;99.90
34873;DHT22;21084;51.098;14.506;2022-09-25T14:27:54;23.70;99.90
34873;DHT22;21084;51.098;14.506;2022-09-25T14:30:22;23.90;99.90
34873;DHT22;21084;51.098;14.506;2022-09-25T14:33:09;24.00;99.90
34873;DHT22;21084;51.098;14.506;2022-09-25T14:35:46;24.30;99.90
34873;DHT22;21084;51.098;14.506;2022-09-25T14:38:34;24.40;99.90
34873;DHT22;21084;51.098;14.506;2022-09-25T14:41:33;24.40;99.90
34873;DHT22;21084;51.098;14.506;2022-09-25T14:44:38;24.00;99.90
34873;DHT22;21084;51.098;14.506;2022-09-25T14:47:12;22.50;99.90
34873;DHT22;21084;51.098;14.506;2022-09-25T14:49:43;23.00;99.90
34873;DHT22;21084;51.098;14.506;2022-09-25T14:52:14;22.30;99.90
34873;DHT22;21084;51.098;14.506;2022-09-25T14:54:45;21.80;99.90
34873;DHT22;21084;51.098;14.506;2022-09-25T14:57:15;21.50;99.90
34873;DHT22;21084;51.098;14.506;2022-09-25T14:59:52;21.40;99.90
34873;DHT22;21084;51.098;14.506;2022-09-25T15:02:25;21.20;99.90
34873;DHT22;21084;51.098;14.506;2022-09-25T15:04:58;21.00;99.90
34873;DHT22;21084;51.098;14.506;2022-09-25T15:07:26;20.70;99.90
34873;DHT22;21084;51.098;14.506;2022-09-25T15:09:55;20.10;99.90
34873;DHT22;21084;51.098;14.506;2022-09-25T15:12:27;19.70;99.90
34873;DHT22;21084;51.098;14.506;2022-09-25T15:15:01;19.20;99.90
34873;DHT22;21084;51.098;14.506;2022-09-25T15:17:31;18.80;99.90
34873;DHT22;21084;51.098;14.506;2022-09-25T15:20:02;18.80;99.90
34873;DHT22;21084;51.098;14.506;2022-09-25T15:22:32;18.70;99.90
34873;DHT22;21084;51.098;14.506;2022-09-25T15:25:05;18.60;99.90
34873;DHT22;21084;51.098;14.506;2022-09-25T15:27:38;18.70;99.90
34873;DHT22;21084;51.098;14.506;2022-09-25T15:30:13;18.80;99.90
34873;DHT22;21084;51.098;14.506;2022-09-25T15:32:42;18.80;99.90
34873;DHT22;21084;51.098;14.506;2022-09-25T15:35:17;18.60;99.90
34873;DHT22;21084;51.098;14.506;2022-09-25T15:37:46;18.40;99.90
34873;DHT22;21084;51.098;14.506;2022-09-25T15:40:20;18.30;99.90
34873;DHT22;21084;51.098;14.506;2022-09-25T15:42:51;18.30;99.90
34873;DHT22;21084;51.098;14.506;2022-09-25T15:45:43;18.20;99.90
34873;DHT22;21084;51.098;14.506;2022-09-25T15:48:19;18.10;99.90
34873;DHT22;21084;51.098;14.506;2022-09-25T15:50:49;18.00;99.90
34873;DHT22;21084;51.098;14.506;2022-09-25T15:53:22;17.80;99.90
34873;DHT22;21084;51.098;14.506;2022-09-25T15:56:03;17.70;99.90
34873;DHT22;21084;51.098;14.506;2022-09-25T15:58:40;17.50;99.90
34873;DHT22;21084;51.098;14.506;2022-09-25T16:01:10;17.30;99.90
34873;DHT22;21084;51.098;14.506;2022-09-25T16:03:56;17.20;99.90
34873;DHT22;21084;51.098;14.506;2022-09-25T16:06:43;16.90;99.90
34873;DHT22;21084;51.098;14.506;2022-09-25T16:09:29;16.90;99.90